Time;durP1;ratioP1;P1;durP2;ratioP2;P2;SDS_P1;SDS_P2;PMS_P1;PMS_P2;Temp;Humidity;BMP_temperature;BMP_pressure;BME280_temperature;BME280_humidity;BME280_pressure;Samples;Min_cycle;Max_cycle;Signal;HPM_P1;HPM_P2
2022/12/23 00:01:49;;;;;;;13.17;8.77;;;;;;;9.42;100.00;98063.09;5001242;28;20226;-81
2022/12/23 00:04:20;;;;;;;15.57;10.00;;;;;;;9.36;100.00;98063.59;5002264;28;20194;-81
2022/12/23 00:06:50;;;;;;;12.93;8.13;;;;;;;9.45;100.00;98068.13;4950200;28;20232;-81
2022/12/23 00:09:18;;;;;;;14.30;8.47;;;;;;;9.43;100.00;98062.13;4926206;29;20192;-82
2022/12/23 00:17:22;;;;;;;12.17;8.10;;;;;;;9.39;100.00;98076.56;5007595;28;20210;-82
2022/12/23 00:19:51;;;;;;;12.97;8.47;;;;;;;9.52;100.00;98083.53;5007249;28;20272;-82
2022/12/23 00:23:03;;;;;;;13.20;8.30;;;;;;;9.54;100.00;98071.88;5008765;28;20262;-81
2022/12/23 00:25:11;;;;;;;15.23;8.60;;;;;;;9.48;100.00;98076.81;5044812;28;20192;-82
2022/12/23 00:27:40;;;;;;;13.33;9.27;;;;;;;9.35;100.00;98079.53;4947872;29;20239;-81
2022/12/23 00:30:11;;;;;;;14.27;8.80;;;;;;;9.39;100.00;98083.66;4952141;29;20215;-81
2022/12/23 00:32:39;;;;;;;10.97;8.07;;;;;;;9.48;100.00;98077.66;4933653;29;20243;-82
2022/12/23 00:35:09;;;;;;;13.50;8.93;;;;;;;9.43;100.00;98083.28;4944554;29;20734;-81
2022/12/23 00:37:38;;;;;;;14.40;9.13;;;;;;;9.49;100.00;98078.50;4950761;28;20204;-81
2022/12/23 00:43:01;;;;;;;14.53;9.10;;;;;;;9.11;100.00;98077.81;4873752;29;20238;-81
2022/12/23 00:45:31;;;;;;;12.83;9.27;;;;;;;9.28;100.00;98070.41;4889805;29;20253;-82
2022/12/23 00:50:46;;;;;;;12.60;9.03;;;;;;;9.14;100.00;98068.81;4931198;29;20248;-82
2022/12/23 00:53:15;;;;;;;12.10;8.80;;;;;;;9.27;100.00;98064.28;4928473;29;20220;-81
2022/12/23 00:55:46;;;;;;;15.13;9.50;;;;;;;9.18;100.00;98065.00;4933235;29;20205;-82
2022/12/23 00:58:16;;;;;;;12.27;8.90;;;;;;;9.28;100.00;98071.25;4963560;28;20212;-81
2022/12/23 01:06:21;;;;;;;14.23;9.10;;;;;;;9.37;100.00;98067.91;5029511;28;20198;-82
2022/12/23 01:08:52;;;;;;;13.33;8.83;;;;;;;9.26;100.00;98078.44;5028485;28;20202;-82
2022/12/23 01:11:21;;;;;;;12.37;8.20;;;;;;;9.24;100.00;98069.78;4971811;28;20734;-82
2022/12/23 01:13:49;;;;;;;10.80;7.67;;;;;;;9.33;100.00;98070.91;4987804;28;20198;-82
2022/12/23 01:16:20;;;;;;;13.27;8.27;;;;;;;9.37;100.00;98067.06;5004443;28;20634;-82
2022/12/23 01:18:50;;;;;;;12.73;8.27;;;;;;;9.16;100.00;98061.59;5004457;28;20198;-82
2022/12/23 01:21:18;;;;;;;13.93;8.40;;;;;;;9.07;100.00;98064.94;5010895;28;20712;-82
2022/12/23 01:23:47;;;;;;;14.27;7.63;;;;;;;9.30;100.00;98071.97;5006390;28;20301;-82
2022/12/23 01:26:16;;;;;;;12.83;8.43;;;;;;;9.08;100.00;98074.56;4947532;29;20771;-82
2022/12/23 01:28:44;;;;;;;12.43;7.83;;;;;;;9.06;100.00;98085.22;4961277;28;20210;-82
2022/12/23 01:31:13;;;;;;;13.87;8.13;;;;;;;9.02;100.00;98090.88;5024829;28;20190;-81
2022/12/23 01:33:44;;;;;;;12.57;7.90;;;;;;;9.15;100.00;98102.19;5017054;28;20202;-82
2022/12/23 01:36:13;;;;;;;13.37;8.40;;;;;;;9.27;100.00;98098.66;4978689;28;20202;-81
2022/12/23 01:38:42;;;;;;;14.87;8.60;;;;;;;9.23;100.00;98097.16;5009588;28;20201;-82
2022/12/23 01:42:42;;;;;;;13.90;8.57;;;;;;;9.15;100.00;98110.09;4999746;28;20198;-82
2022/12/23 01:44:38;;;;;;;14.03;8.03;;;;;;;8.92;100.00;98113.63;5033535;28;20261;-82
2022/12/23 01:47:10;;;;;;;15.80;8.00;;;;;;;9.06;100.00;98121.34;5020108;28;20193;-82
2022/12/23 01:49:40;;;;;;;13.97;8.97;;;;;;;8.89;100.00;98118.19;4990033;28;20211;-82
2022/12/23 01:52:11;;;;;;;13.50;8.50;;;;;;;8.85;100.00;98129.09;4990792;28;20215;-81
2022/12/23 01:54:41;;;;;;;16.87;9.37;;;;;;;8.81;100.00;98138.19;4960751;28;20191;-82
2022/12/23 01:57:10;;;;;;;14.40;9.13;;;;;;;8.88;100.00;98142.91;4982825;28;20199;-82
2022/12/23 02:05:19;;;;;;;11.23;6.90;;;;;;;8.89;100.00;98151.69;4992938;28;20722;-82
2022/12/23 02:10:54;;;;;;;12.23;5.90;;;;;;;9.08;100.00;98152.00;5070125;28;20253;-81
2022/12/23 02:13:32;;;;;;;8.80;5.10;;;;;;;9.04;100.00;98161.09;5065945;28;20647;-82
2022/12/23 02:16:17;;;;;;;7.23;4.67;;;;;;;8.99;100.00;98152.69;5060210;28;20192;-81
2022/12/23 02:19:02;;;;;;;10.93;5.43;;;;;;;9.00;100.00;98150.88;5066713;28;20204;-81
2022/12/23 02:21:46;;;;;;;8.60;5.67;;;;;;;9.11;100.00;98170.25;5069262;28;20218;-82
2022/12/23 02:24:55;;;;;;;10.53;5.00;;;;;;;9.01;100.00;98169.25;5069177;28;20701;-82
2022/12/23 02:27:33;;;;;;;8.33;4.93;;;;;;;9.11;100.00;98164.97;5065862;28;20228;-82
2022/12/23 02:30:22;;;;;;;7.30;3.63;;;;;;;9.15;100.00;98166.44;5012734;28;20305;-81
2022/12/23 02:33:25;;;;;;;6.67;3.53;;;;;;;9.10;100.00;98171.22;5006956;28;20293;-82
2022/12/23 02:36:02;;;;;;;6.07;2.37;;;;;;;9.22;100.00;98180.03;5004403;28;20260;-81
2022/12/23 02:38:42;;;;;;;3.57;1.90;;;;;;;9.24;100.00;98186.03;5001490;28;20213;-82
2022/12/23 02:41:19;;;;;;;3.60;1.80;;;;;;;9.23;100.00;98180.88;5007136;28;20229;-81
2022/12/23 02:43:53;;;;;;;4.20;1.70;;;;;;;9.30;100.00;98177.66;5003511;28;20222;-81
2022/12/23 02:46:31;;;;;;;4.10;1.70;;;;;;;9.20;100.00;98163.47;4951045;28;20220;-82
2022/12/23 02:49:08;;;;;;;3.53;1.30;;;;;;;9.18;100.00;98168.84;4994266;28;20206;-81
2022/12/23 02:51:46;;;;;;;3.57;1.50;;;;;;;9.13;100.00;98175.44;5007362;28;20260;-81
2022/12/23 02:54:18;;;;;;;5.83;1.50;;;;;;;9.21;100.00;98170.44;5003704;28;20199;-81
2022/12/23 02:56:53;;;;;;;1.90;1.27;;;;;;;9.28;100.00;98170.81;4989312;28;20195;-81
2022/12/23 02:59:36;;;;;;;2.93;1.37;;;;;;;9.27;100.00;98175.25;4988234;28;20746;-81
2022/12/23 03:02:05;;;;;;;5.83;1.67;;;;;;;9.18;100.00;98168.84;4982096;28;20213;-81
2022/12/23 03:04:37;;;;;;;4.63;1.50;;;;;;;9.16;100.00;98165.47;5007295;28;20221;-81
2022/12/23 03:07:15;;;;;;;3.00;1.37;;;;;;;9.14;100.00;98163.91;4915063;29;20258;-81
2022/12/23 03:09:56;;;;;;;2.27;1.40;;;;;;;9.14;100.00;98161.25;4914898;29;20202;-81
2022/12/23 03:12:37;;;;;;;1.80;1.50;;;;;;;9.23;100.00;98162.38;4872868;29;20318;-82
2022/12/23 03:15:18;;;;;;;3.10;1.70;;;;;;;9.24;100.00;98169.34;4879541;29;20321;-81
2022/12/23 03:17:58;;;;;;;3.50;1.50;;;;;;;9.34;100.00;98178.28;4892302;29;20646;-81
2022/12/23 03:20:39;;;;;;;3.30;1.60;;;;;;;9.10;100.00;98167.75;4894577;29;20222;-81
2022/12/23 03:23:20;;;;;;;7.60;1.70;;;;;;;9.06;100.00;98175.03;4892423;29;20281;-81
2022/12/23 03:26:02;;;;;;;4.30;1.70;;;;;;;8.96;100.00;98171.38;4974810;28;20282;-81
2022/12/23 03:28:40;;;;;;;3.30;1.60;;;;;;;9.02;100.00;98181.50;5001715;28;20289;-82
2022/12/23 03:31:13;;;;;;;4.23;1.57;;;;;;;9.10;100.00;98184.44;5045664;28;20233;-81
2022/12/23 03:33:45;;;;;;;3.43;1.90;;;;;;;8.96;100.00;98179.31;5069942;28;20196;-81
2022/12/23 03:36:22;;;;;;;4.90;1.93;;;;;;;8.88;100.00;98182.53;5070510;28;20189;-81
2022/12/23 03:38:53;;;;;;;3.13;1.70;;;;;;;8.87;100.00;98179.97;5063632;28;20208;-81
2022/12/23 03:41:27;;;;;;;2.43;1.80;;;;;;;8.94;100.00;98190.94;5064244;28;20200;-81
2022/12/23 03:44:04;;;;;;;2.97;2.20;;;;;;;8.79;100.00;98199.03;5063359;28;20230;-82
2022/12/23 03:46:41;;;;;;;3.63;2.20;;;;;;;8.92;100.00;98190.22;5065654;28;20200;-81
2022/12/23 03:49:15;;;;;;;3.10;1.73;;;;;;;9.06;100.00;98184.75;5027233;28;20193;-81
2022/12/23 03:51:53;;;;;;;2.93;1.87;;;;;;;8.98;100.00;98192.41;5021534;28;20373;-81
2022/12/23 03:54:30;;;;;;;4.57;1.73;;;;;;;9.07;100.00;98203.16;5025503;28;20202;-82
2022/12/23 03:57:03;;;;;;;4.67;1.60;;;;;;;9.10;100.00;98208.19;5022001;28;20205;-81
2022/12/23 03:59:39;;;;;;;2.30;1.50;;;;;;;9.03;100.00;98209.59;5027431;28;20209;-81
2022/12/23 04:02:14;;;;;;;2.60;1.50;;;;;;;8.91;100.00;98214.94;5027787;28;20198;-81
2022/12/23 04:04:54;;;;;;;3.07;1.23;;;;;;;9.10;100.00;98215.28;5025762;28;20221;-81
2022/12/23 04:07:31;;;;;;;3.30;1.50;;;;;;;8.96;100.00;98218.91;5048941;28;20200;-81
2022/12/23 04:10:00;;;;;;;1.83;1.23;;;;;;;9.10;100.00;98236.41;5015775;28;20208;-81
2022/12/23 04:12:33;;;;;;;2.43;1.40;;;;;;;9.12;100.00;98242.44;5060702;28;20192;-81
2022/12/23 04:15:02;;;;;;;1.80;1.33;;;;;;;9.17;100.00;98242.94;5032372;28;20223;-81
2022/12/23 04:17:41;;;;;;;1.20;1.10;;;;;;;9.21;100.00;98249.69;5066652;28;20207;-81
2022/12/23 04:20:11;;;;;;;3.80;1.17;;;;;;;9.37;100.00;98250.25;5065691;28;20222;-81
2022/12/23 04:22:46;;;;;;;2.00;1.13;;;;;;;9.41;100.00;98245.56;5069471;28;20192;-81
2022/12/23 04:25:16;;;;;;;1.73;1.10;;;;;;;9.34;100.00;98244.34;5064205;28;20223;-81
2022/12/23 04:27:45;;;;;;;1.50;1.10;;;;;;;9.38;100.00;98249.28;5062101;28;20227;-82
2022/12/23 04:30:17;;;;;;;1.60;0.87;;;;;;;9.37;100.00;98247.63;5063724;28;20193;-81
2022/12/23 04:32:49;;;;;;;1.90;0.83;;;;;;;9.48;100.00;98249.47;5036929;28;20192;-81
2022/12/23 04:35:21;;;;;;;1.57;1.20;;;;;;;9.41;100.00;98256.16;4952953;28;20200;-81
2022/12/23 04:37:53;;;;;;;1.47;1.00;;;;;;;9.44;100.00;98250.63;4965125;28;20211;-82
2022/12/23 04:40:21;;;;;;;2.50;1.03;;;;;;;9.36;100.00;98245.06;4970459;28;20271;-82
2022/12/23 04:42:50;;;;;;;1.40;1.00;;;;;;;9.24;100.00;98251.25;4966651;28;20204;-82
2022/12/23 04:45:18;;;;;;;3.07;1.10;;;;;;;9.17;100.00;98245.59;4895976;29;20222;-82
2022/12/23 04:47:48;;;;;;;1.50;1.30;;;;;;;9.25;100.00;98255.56;4896409;29;20804;-81
2022/12/23 04:50:18;;;;;;;4.07;1.37;;;;;;;9.24;100.00;98251.25;4898485;29;20199;-82
2022/12/23 04:52:48;;;;;;;1.40;1.27;;;;;;;9.21;100.00;98238.28;4899050;29;20210;-81
2022/12/23 04:55:18;;;;;;;4.63;1.23;;;;;;;9.24;100.00;98236.25;4907538;29;20202;-81
2022/12/23 04:57:47;;;;;;;2.33;1.10;;;;;;;9.17;100.00;98227.09;4900981;29;20199;-81
2022/12/23 05:00:17;;;;;;;2.90;1.40;;;;;;;9.23;100.00;98233.72;4954884;28;20275;-81
2022/12/23 05:02:49;;;;;;;1.80;1.10;;;;;;;9.16;100.00;98235.94;5000212;28;20269;-81
2022/12/23 05:05:17;;;;;;;1.53;1.20;;;;;;;9.13;100.00;98234.38;5010607;28;20214;-81
2022/12/23 05:07:50;;;;;;;3.03;1.80;;;;;;;9.04;100.00;98227.13;5004141;28;20210;-81
2022/12/23 05:10:20;;;;;;;2.47;1.80;;;;;;;8.86;100.00;98229.28;5013446;28;20647;-81
2022/12/23 05:12:50;;;;;;;4.50;2.00;;;;;;;8.92;100.00;98235.09;5005023;28;20210;-82
2022/12/23 05:15:20;;;;;;;3.67;2.10;;;;;;;9.06;100.00;98238.41;4989249;28;20639;-82
2022/12/23 05:17:49;;;;;;;3.53;1.73;;;;;;;8.97;100.00;98233.81;4990118;28;20198;-81
2022/12/23 05:20:17;;;;;;;2.23;1.87;;;;;;;9.08;100.00;98240.97;4989919;28;20592;-82
2022/12/23 05:22:48;;;;;;;2.57;2.00;;;;;;;8.93;100.00;98244.72;4995686;28;20208;-81
2022/12/23 05:25:17;;;;;;;2.07;1.47;;;;;;;8.97;100.00;98247.00;5029393;28;20224;-81
2022/12/23 05:27:50;;;;;;;3.63;1.90;;;;;;;8.92;100.00;98249.16;5027193;28;20696;-82
2022/12/23 05:30:20;;;;;;;4.10;1.43;;;;;;;8.96;100.00;98258.53;5026320;28;20233;-81
2022/12/23 05:32:52;;;;;;;4.33;1.50;;;;;;;9.04;100.00;98253.53;4989181;28;20601;-81
2022/12/23 05:35:21;;;;;;;3.30;1.30;;;;;;;9.01;100.00;98264.34;5046544;28;20197;-82
2022/12/23 05:37:49;;;;;;;3.07;1.60;;;;;;;9.04;100.00;98250.91;5051285;28;20224;-81
2022/12/23 05:40:18;;;;;;;1.30;1.20;;;;;;;9.11;100.00;98251.31;5044014;28;20648;-80
2022/12/23 05:42:53;;;;;;;3.00;1.60;;;;;;;9.23;100.00;98260.13;5049125;28;20197;-82
2022/12/23 05:45:23;;;;;;;2.50;1.20;;;;;;;9.27;100.00;98262.47;5050887;28;20228;-81
2022/12/23 05:47:52;;;;;;;1.43;1.00;;;;;;;9.41;100.00;98274.66;5031802;28;20194;-81
2022/12/23 05:50:22;;;;;;;1.23;1.10;;;;;;;9.42;100.00;98274.53;5025617;28;20281;-82
2022/12/23 05:52:54;;;;;;;1.10;0.93;;;;;;;9.51;100.00;98270.38;5029004;28;20244;-81
2022/12/23 05:55:25;;;;;;;5.13;1.40;;;;;;;9.52;100.00;98279.13;5024885;28;20256;-82
2022/12/23 05:57:56;;;;;;;1.10;1.00;;;;;;;9.55;100.00;98273.63;5031647;28;20205;-81
2022/12/23 06:00:25;;;;;;;1.23;0.90;;;;;;;9.65;100.00;98270.19;5025696;28;20190;-82
2022/12/23 06:03:01;;;;;;;2.33;1.00;;;;;;;9.53;100.00;98265.81;5028191;28;20684;-82
2022/12/23 06:05:35;;;;;;;1.60;1.00;;;;;;;9.50;100.00;98273.13;4982989;28;20334;-82
2022/12/23 06:08:04;;;;;;;1.80;1.00;;;;;;;9.49;100.00;98271.44;5008315;28;20800;-82
2022/12/23 06:10:32;;;;;;;1.80;1.07;;;;;;;9.59;100.00;98269.81;5007977;28;20194;-81
2022/12/23 06:13:06;;;;;;;1.37;1.00;;;;;;;9.53;100.00;98263.16;5006320;28;20241;-81
2022/12/23 06:15:37;;;;;;;2.30;1.17;;;;;;;9.46;100.00;98270.72;5009141;28;20198;-82
2022/12/23 06:18:05;;;;;;;1.60;1.07;;;;;;;9.44;100.00;98274.41;5007729;28;20206;-81
2022/12/23 06:20:40;;;;;;;2.13;1.30;;;;;;;9.41;100.00;98272.84;4937175;29;20208;-81
2022/12/23 06:23:09;;;;;;;2.23;0.90;;;;;;;9.36;100.00;98280.28;4962027;28;20199;-81
2022/12/23 06:25:40;;;;;;;1.90;0.93;;;;;;;9.40;100.00;98283.53;4989208;28;20223;-81
2022/12/23 06:28:10;;;;;;;2.50;1.40;;;;;;;9.44;100.00;98287.63;4988837;28;20238;-81
2022/12/23 06:30:39;;;;;;;2.23;1.10;;;;;;;9.43;100.00;98294.72;4986477;28;20205;-82
2022/12/23 06:33:11;;;;;;;1.30;1.20;;;;;;;9.41;100.00;98294.00;4949252;29;20204;-81
2022/12/23 06:35:39;;;;;;;2.73;1.40;;;;;;;9.34;100.00;98299.81;4951413;29;20197;-82
2022/12/23 06:38:08;;;;;;;4.97;1.50;;;;;;;9.38;100.00;98296.03;4968863;28;20202;-81
2022/12/23 06:40:41;;;;;;;3.33;1.70;;;;;;;9.38;100.00;98296.03;5025884;28;20273;-81
2022/12/23 06:43:12;;;;;;;3.77;1.50;;;;;;;9.33;100.00;98314.84;5021829;28;20200;-81
2022/12/23 06:45:40;;;;;;;2.80;1.30;;;;;;;9.31;100.00;98316.75;5028214;28;20217;-81
2022/12/23 06:48:09;;;;;;;1.50;1.40;;;;;;;9.28;100.00;98322.28;5021419;28;20232;-81
2022/12/23 06:50:38;;;;;;;2.77;1.33;;;;;;;9.35;100.00;98312.06;5033079;28;20205;-81
2022/12/23 06:53:08;;;;;;;3.17;1.53;;;;;;;9.28;100.00;98316.97;5048036;28;20644;-81
2022/12/23 06:55:36;;;;;;;2.40;1.10;;;;;;;9.31;100.00;98308.81;5051732;28;20208;-81
2022/12/23 06:58:06;;;;;;;1.87;1.30;;;;;;;9.31;100.00;98314.13;5052761;28;20656;-81
2022/12/23 07:00:37;;;;;;;2.30;1.23;;;;;;;9.35;100.00;98315.56;5028978;28;20334;-82
2022/12/23 07:03:06;;;;;;;3.87;2.03;;;;;;;9.36;100.00;98311.13;5028308;28;20186;-81
2022/12/23 07:05:36;;;;;;;3.40;1.50;;;;;;;9.29;100.00;98310.75;5027861;28;20214;-81
2022/12/23 07:08:05;;;;;;;2.50;1.40;;;;;;;9.27;100.00;98317.09;5025091;28;20205;-81
2022/12/23 07:10:35;;;;;;;2.63;1.30;;;;;;;9.28;100.00;98316.16;5021923;28;20760;-81
2022/12/23 07:13:03;;;;;;;5.57;2.10;;;;;;;9.24;100.00;98317.31;5023204;28;20202;-81
2022/12/23 07:15:41;;;;;;;5.63;2.47;;;;;;;9.27;100.00;98311.81;5025693;28;20190;-81
2022/12/23 07:18:15;;;;;;;5.40;3.00;;;;;;;9.16;100.00;98305.47;5030735;28;20200;-81
2022/12/23 07:20:45;;;;;;;5.30;2.17;;;;;;;9.20;100.00;98310.56;5048539;28;20200;-81
2022/12/23 07:23:15;;;;;;;1.97;1.33;;;;;;;9.36;100.00;98304.06;5049946;28;20709;-81
2022/12/23 07:25:44;;;;;;;2.97;1.83;;;;;;;9.25;100.00;98305.78;5047192;28;20259;-81
2022/12/23 07:28:13;;;;;;;5.57;2.30;;;;;;;9.21;100.00;98293.75;5050090;28;20233;-81
2022/12/23 07:30:44;;;;;;;7.77;3.07;;;;;;;9.38;100.00;98291.56;5045944;28;20256;-80
2022/12/23 07:33:13;;;;;;;4.17;2.20;;;;;;;9.30;100.00;98296.56;4966759;28;20287;-81
2022/12/23 07:35:42;;;;;;;4.97;2.30;;;;;;;9.26;100.00;98304.81;4962821;28;20204;-81
2022/12/23 07:38:12;;;;;;;8.00;3.23;;;;;;;9.33;100.00;98308.72;4969708;28;20188;-81
2022/12/23 07:40:43;;;;;;;6.87;2.80;;;;;;;9.25;100.00;98308.41;4953761;28;20196;-81
2022/12/23 07:43:12;;;;;;;6.40;1.80;;;;;;;9.09;100.00;98317.47;4966070;28;20199;-81
2022/12/23 07:45:41;;;;;;;2.47;1.37;;;;;;;9.12;100.00;98322.50;4953357;28;20267;-80
2022/12/23 07:48:11;;;;;;;1.70;1.40;;;;;;;9.15;100.00;98319.66;4971957;28;20266;-81
2022/12/23 07:50:40;;;;;;;2.83;1.40;;;;;;;8.96;100.00;98315.78;4979082;28;20648;-81
2022/12/23 07:53:10;;;;;;;3.10;1.40;;;;;;;8.98;100.00;98327.09;5045215;28;20217;-81
2022/12/23 07:55:41;;;;;;;2.10;1.30;;;;;;;9.01;100.00;98337.44;5043043;28;20204;-81
2022/12/23 07:58:11;;;;;;;3.20;1.30;;;;;;;9.12;100.00;98334.88;5050506;28;20683;-81
2022/12/23 08:00:39;;;;;;;2.67;1.30;;;;;;;9.14;100.00;98335.59;5051328;28;20271;-82
2022/12/23 08:03:11;;;;;;;2.13;1.50;;;;;;;9.14;100.00;98347.00;5052350;28;20239;-81
2022/12/23 08:05:40;;;;;;;2.53;1.50;;;;;;;9.16;100.00;98350.38;5045660;28;20212;-81
2022/12/23 08:08:11;;;;;;;1.83;1.20;;;;;;;9.23;100.00;98358.72;5043412;28;20209;-83
2022/12/23 08:10:43;;;;;;;2.47;1.23;;;;;;;9.22;100.00;98350.91;5050071;28;20236;-81
2022/12/23 08:13:16;;;;;;;2.40;1.10;;;;;;;9.25;100.00;98354.19;5011331;28;20202;-81
2022/12/23 08:15:45;;;;;;;4.10;1.30;;;;;;;9.34;100.00;98353.50;5012132;28;20205;-81
2022/12/23 08:18:15;;;;;;;1.97;1.13;;;;;;;9.38;100.00;98348.88;4989822;28;20194;-81
2022/12/23 08:20:44;;;;;;;1.33;0.97;;;;;;;9.42;100.00;98352.97;4994926;28;20214;-81
2022/12/23 08:23:13;;;;;;;3.20;1.10;;;;;;;9.30;100.00;98344.13;4985091;28;20202;-81
2022/12/23 08:25:48;;;;;;;3.07;1.00;;;;;;;9.37;100.00;98349.84;4994833;28;20194;-81
2022/12/23 08:28:19;;;;;;;2.93;1.40;;;;;;;9.38;100.00;98339.16;4993398;28;20230;-81
2022/12/23 08:30:49;;;;;;;3.50;1.50;;;;;;;9.43;100.00;98338.78;4987134;28;20223;-82
2022/12/23 08:33:23;;;;;;;2.57;1.30;;;;;;;9.50;100.00;98337.41;4932061;29;20347;-80
2022/12/23 08:36:01;;;;;;;1.93;1.20;;;;;;;9.52;100.00;98335.50;4915749;29;20219;-80
2022/12/23 08:38:33;;;;;;;2.43;1.37;;;;;;;9.52;100.00;98342.56;4877834;29;20199;-80
2022/12/23 08:41:02;;;;;;;3.03;1.40;;;;;;;9.51;100.00;98340.91;4878852;29;20360;-81
2022/12/23 08:43:31;;;;;;;5.40;1.73;;;;;;;9.60;100.00;98330.50;4900349;29;20202;-81
2022/12/23 08:46:05;;;;;;;3.37;1.90;;;;;;;9.54;100.00;98324.81;4918263;29;20226;-81
2022/12/23 08:48:36;;;;;;;4.53;1.70;;;;;;;9.66;100.00;98316.84;4919465;29;20249;-80
2022/12/23 08:51:07;;;;;;;3.23;1.50;;;;;;;9.63;100.00;98314.38;4921484;29;20201;-81
2022/12/23 08:53:37;;;;;;;4.50;1.97;;;;;;;9.72;100.00;98310.22;4953735;28;20205;-80
2022/12/23 08:56:08;;;;;;;2.80;1.60;;;;;;;9.55;100.00;98310.63;5009262;28;20200;-81
2022/12/23 08:58:38;;;;;;;3.57;1.70;;;;;;;9.63;100.00;98310.91;5015622;28;20266;-81
2022/12/23 09:01:14;;;;;;;2.00;1.40;;;;;;;9.75;100.00;98317.94;5050743;28;20192;-81
2022/12/23 09:03:46;;;;;;;3.67;1.23;;;;;;;9.65;100.00;98315.16;5037141;28;20293;-81
2022/12/23 09:06:18;;;;;;;2.67;1.60;;;;;;;9.66;100.00;98318.63;4955492;29;20220;-81
2022/12/23 09:09:00;;;;;;;2.13;1.80;;;;;;;9.71;100.00;98308.53;4898396;29;20227;-81
2022/12/23 09:11:33;;;;;;;4.03;2.00;;;;;;;9.81;100.00;98319.28;4894738;29;20194;-82
2022/12/23 09:14:05;;;;;;;3.10;2.20;;;;;;;9.82;100.00;98313.03;4891950;29;20226;-81
2022/12/23 09:16:34;;;;;;;5.97;3.60;;;;;;;9.78;100.00;98301.84;4891250;29;20202;-81
2022/12/23 09:19:06;;;;;;;20.60;8.30;;;;;;;9.89;100.00;98296.59;4891175;29;20198;-81
2022/12/23 09:21:38;;;;;;;18.17;9.77;;;;;;;9.83;100.00;98299.69;4909582;29;20204;-81
2022/12/23 09:24:07;;;;;;;9.83;7.77;;;;;;;9.88;100.00;98305.50;4928824;29;20522;-81
2022/12/23 09:26:35;;;;;;;6.27;4.57;;;;;;;9.89;100.00;98315.13;4892089;29;20232;-82
2022/12/23 09:29:10;;;;;;;7.43;3.90;;;;;;;9.81;100.00;98309.53;4927070;29;20268;-81
2022/12/23 09:31:43;;;;;;;3.50;3.00;;;;;;;9.75;100.00;98315.31;4997222;28;20190;-81
2022/12/23 09:34:18;;;;;;;4.80;3.10;;;;;;;9.73;100.00;98319.84;5008304;28;20198;-81
2022/12/23 09:36:50;;;;;;;8.07;3.93;;;;;;;9.72;100.00;98320.81;5011351;28;20194;-81
2022/12/23 09:39:23;;;;;;;7.27;4.67;;;;;;;9.72;100.00;98307.59;5009549;28;20276;-81
2022/12/23 09:42:05;;;;;;;9.43;5.77;;;;;;;9.79;100.00;98306.19;5006839;28;20214;-81
2022/12/23 09:44:46;;;;;;;8.40;5.83;;;;;;;9.66;100.00;98308.91;5030066;28;20197;-81
2022/12/23 09:47:19;;;;;;;13.20;9.63;;;;;;;9.64;100.00;98304.66;4985620;28;20214;-81
2022/12/23 09:49:54;;;;;;;9.67;7.37;;;;;;;9.61;100.00;98300.44;4986183;28;20209;-80
2022/12/23 09:52:27;;;;;;;13.60;10.13;;;;;;;9.67;100.00;98299.16;4987082;28;20284;-80
2022/12/23 09:54:56;;;;;;;9.57;7.40;;;;;;;9.67;100.00;98307.94;4942619;28;20203;-80
2022/12/23 09:57:35;;;;;;;10.37;7.43;;;;;;;9.74;100.00;98303.00;4984058;28;20749;-81
2022/12/23 10:00:10;;;;;;;123.57;59.90;;;;;;;9.70;100.00;98299.78;4988012;28;20658;-81
2022/12/23 10:02:53;;;;;;;41.97;26.10;;;;;;;9.73;100.00;98309.25;4989116;28;20238;-80
2022/12/23 10:05:34;;;;;;;13.33;9.53;;;;;;;9.68;100.00;98304.34;5018946;28;20201;-80
2022/12/23 10:08:09;;;;;;;12.63;9.90;;;;;;;9.83;100.00;98304.97;5037958;28;20217;-81
2022/12/23 10:10:43;;;;;;;16.57;10.00;;;;;;;9.73;100.00;98322.50;5028093;28;20236;-80
2022/12/23 10:13:24;;;;;;;16.47;10.27;;;;;;;9.74;100.00;98316.25;4983852;28;20195;-81
2022/12/23 10:15:56;;;;;;;12.33;8.63;;;;;;;9.95;100.00;98314.66;4988709;28;20214;-80
2022/12/23 10:18:51;;;;;;;8.97;7.13;;;;;;;9.85;100.00;98299.59;4987736;28;20247;-81
2022/12/23 10:21:30;;;;;;;10.67;7.53;;;;;;;9.89;100.00;98306.34;4989714;28;20207;-81
2022/12/23 10:24:06;;;;;;;13.07;8.43;;;;;;;9.78;100.00;98303.66;4990255;28;20223;-82
2022/12/23 10:26:41;;;;;;;10.47;8.27;;;;;;;9.82;100.00;98294.53;4989374;28;20226;-80
2022/12/23 10:29:16;;;;;;;12.17;9.40;;;;;;;9.92;100.00;98292.88;5004976;28;20255;-80
2022/12/23 10:32:00;;;;;;;15.73;9.73;;;;;;;9.83;100.00;98275.88;5008839;28;20198;-81
2022/12/23 10:34:39;;;;;;;10.67;7.53;;;;;;;9.79;100.00;98281.53;5011351;28;20197;-80
2022/12/23 10:37:22;;;;;;;10.40;8.30;;;;;;;9.83;100.00;98275.03;5006976;28;20300;-80
2022/12/23 10:40:03;;;;;;;9.57;6.77;;;;;;;9.87;100.00;98274.72;5005356;28;20202;-80
2022/12/23 10:42:39;;;;;;;6.97;5.77;;;;;;;9.81;100.00;98266.38;5009002;28;20194;-80
2022/12/23 10:45:36;;;;;;;7.23;5.23;;;;;;;9.89;100.00;98262.22;5004421;28;20202;-80
2022/12/23 10:48:21;;;;;;;6.53;5.23;;;;;;;9.86;100.00;98266.91;5012005;28;20222;-80
2022/12/23 10:50:58;;;;;;;18.43;9.57;;;;;;;9.87;100.00;98271.22;4987457;28;20210;-80
2022/12/23 10:53:36;;;;;;;10.27;7.37;;;;;;;9.88;100.00;98273.75;4985910;28;20198;-80
2022/12/23 10:56:07;;;;;;;9.57;7.50;;;;;;;9.80;100.00;98268.19;4985793;28;20210;-80
2022/12/23 10:58:40;;;;;;;15.23;10.37;;;;;;;9.79;100.00;98271.81;4982449;28;20241;-80
2022/12/23 11:01:14;;;;;;;18.73;13.53;;;;;;;9.77;100.00;98268.44;4984092;28;20202;-79
2022/12/23 11:04:03;;;;;;;20.00;10.97;;;;;;;9.87;100.00;98252.72;4987273;28;20199;-81
2022/12/23 11:06:33;;;;;;;10.87;7.53;;;;;;;9.83;100.00;98246.78;4982762;28;20265;-79
2022/12/23 11:09:12;;;;;;;12.97;8.20;;;;;;;9.78;100.00;98237.53;4997635;28;20210;-80
2022/12/23 11:11:58;;;;;;;10.13;7.83;;;;;;;9.75;100.00;98234.19;5010078;28;20277;-80
2022/12/23 11:14:35;;;;;;;9.83;7.40;;;;;;;9.64;100.00;98226.19;5024467;28;20194;-80
2022/12/23 11:17:21;;;;;;;10.97;7.90;;;;;;;9.70;100.00;98217.81;5029512;28;20216;-80
2022/12/23 11:20:12;;;;;;;10.80;7.97;;;;;;;9.59;100.00;98209.00;5030268;28;20221;-80
2022/12/23 11:22:51;;;;;;;12.03;8.60;;;;;;;9.66;100.00;98203.16;5032163;28;20196;-81
2022/12/23 11:25:30;;;;;;;12.87;8.43;;;;;;;9.77;100.00;98210.25;5026936;28;20542;-81
2022/12/23 11:28:05;;;;;;;11.07;8.27;;;;;;;9.68;100.00;98200.38;5060923;28;20266;-81
2022/12/23 11:30:38;;;;;;;10.17;7.50;;;;;;;9.72;100.00;98196.53;5067968;28;20208;-81
2022/12/23 11:33:21;;;;;;;11.40;7.80;;;;;;;9.67;100.00;98185.47;5064887;28;20199;-80
2022/12/23 11:36:00;;;;;;;10.63;8.00;;;;;;;9.73;100.00;98179.69;5066437;28;20204;-80
2022/12/23 11:38:30;;;;;;;10.10;7.53;;;;;;;9.74;100.00;98186.66;5068784;28;20199;-80
2022/12/23 11:41:01;;;;;;;10.57;9.10;;;;;;;9.79;100.00;98189.81;5025789;28;20198;-80
2022/12/23 11:43:33;;;;;;;10.27;6.93;;;;;;;9.78;100.00;98184.66;4983794;28;20713;-80
2022/12/23 11:46:15;;;;;;;11.17;7.63;;;;;;;9.71;100.00;98185.13;4985175;28;20280;-80
2022/12/23 11:48:44;;;;;;;10.77;9.00;;;;;;;9.66;100.00;98173.22;4989073;28;20219;-80
2022/12/23 11:51:27;;;;;;;9.73;7.90;;;;;;;9.74;100.00;98161.06;4986861;28;20231;-80
2022/12/23 11:54:01;;;;;;;12.00;7.60;;;;;;;9.74;100.00;98155.78;4985775;28;20222;-80
2022/12/23 11:56:36;;;;;;;8.50;6.50;;;;;;;9.72;100.00;98151.59;4929919;29;20255;-80
2022/12/23 11:59:18;;;;;;;10.20;7.17;;;;;;;9.76;100.00;98134.53;4929219;29;20200;-80
2022/12/23 12:01:49;;;;;;;9.27;6.30;;;;;;;9.61;100.00;98130.41;4944959;28;20270;-80
2022/12/23 12:04:21;;;;;;;8.47;6.53;;;;;;;9.82;100.00;98138.50;4966326;28;20328;-80
2022/12/23 12:06:50;;;;;;;8.57;7.23;;;;;;;9.47;100.00;98134.13;5006221;28;20187;-80
2022/12/23 12:09:25;;;;;;;8.17;6.17;;;;;;;9.67;100.00;98119.38;5006633;28;20309;-80
2022/12/23 12:12:03;;;;;;;6.70;5.60;;;;;;;9.64;100.00;98123.09;5008193;28;20205;-80
2022/12/23 12:14:37;;;;;;;6.60;4.90;;;;;;;9.75;100.00;98125.75;5004826;28;20202;-80
2022/12/23 12:17:16;;;;;;;7.87;5.67;;;;;;;9.72;100.00;98128.63;4996646;28;20233;-80
2022/12/23 12:19:55;;;;;;;5.87;5.00;;;;;;;9.74;100.00;98126.69;4964108;28;20287;-80
2022/12/23 12:22:33;;;;;;;6.87;5.70;;;;;;;9.63;100.00;98121.41;5019949;28;20307;-79
2022/12/23 12:25:16;;;;;;;7.37;6.00;;;;;;;9.74;100.00;98137.28;5009497;28;20252;-80
2022/12/23 12:27:54;;;;;;;8.07;6.67;;;;;;;9.72;100.00;98136.56;5003238;28;20229;-81